Mer Provider — IJND2 — position and weather

sailwx.info

Track history (hours):
 
Tides and Currents Weather Stations Pressure Air Temp Water Temp Dewpoint Dewpoint Depression Visibility Wind Speed Wind Dir Waves Ship Positions

Mer Provider

Last reported at 2018-Apr-17 19:29 UTC. Time now 2018-Apr-20 05:06 UTC.
Position N 40°52' E 013°24'.

Length 45 m; draft 3.8 m.

Type: Tug. MMSI: 247386200.

Date/timePositionNaut miles runAvg speedWind from/ knotsBaromVisibWave heightAir tempDewpointWater temp
2018-Apr-17 19:29N 40°52' E 013°24'5 6.6
2018-Apr-17 18:46N 40°50' E 013°29'11 6.5
2018-Apr-17 17:05N 40°44' E 013°41'1 6.5
2018-Apr-17 16:59N 40°43' E 013°42'3 6.6
2018-Apr-17 16:29N 40°41' E 013°45'3 6.7
2018-Apr-17 16:00N 40°39' E 013°49'3 6.6
2018-Apr-17 15:30N 40°38' E 013°53'4 7.4
2018-Apr-17 14:58N 40°39' E 013°58'3 7.4
2018-Apr-17 14:30N 40°39' E 014°03'4 7.3
2018-Apr-17 14:00N 40°41' E 014°06'4 7.6
2018-Apr-17 13:30N 40°44' E 014°10'4 7.3
2018-Apr-17 13:00N 40°47' E 014°13'3 6.1
2018-Apr-17 12:30N 40°49' E 014°16'1 2.5
2018-Apr-17 12:00N 40°50' E 014°17'1 1.6
2018-Apr-17 11:30N 40°51' E 014°16'0 0.0
2018-Apr-17 10:59N 40°51' E 014°16'0 0.0
2018-Apr-17 10:30N 40°51' E 014°16'0 0.0
2018-Apr-17 09:59N 40°51' E 014°16'0 0.0
2018-Apr-17 09:30N 40°51' E 014°16'0 0.0
2018-Apr-17 09:00N 40°51' E 014°16'0 0.0
2018-Apr-17 08:29N 40°51' E 014°16'0 0.0
2018-Apr-17 07:59N 40°51' E 014°16'0 0.0
2018-Apr-17 07:30N 40°51' E 014°16'0 0.0
2018-Apr-17 06:58N 40°51' E 014°16'0 0.0
2018-Apr-17 06:30N 40°51' E 014°16'0 0.0
2018-Apr-17 06:00N 40°51' E 014°16'0 0.0
2018-Apr-17 05:30N 40°51' E 014°16'0 0.0
2018-Apr-17 05:00N 40°51' E 014°16'0 0.0
2018-Apr-17 04:30N 40°51' E 014°16'0 0.0
2018-Apr-17 04:00N 40°51' E 014°16'0 0.0
2018-Apr-17 03:30N 40°51' E 014°16'0 0.0
2018-Apr-17 03:00N 40°51' E 014°16'0 0.0
2018-Apr-17 02:30N 40°51' E 014°16'0 0.0
2018-Apr-17 02:00N 40°51' E 014°16'0 0.0
2018-Apr-17 01:30N 40°51' E 014°16'0 0.0
2018-Apr-17 00:59N 40°51' E 014°16'0 0.0
2018-Apr-17 00:30N 40°51' E 014°16'0 0.0
2018-Apr-17 00:00N 40°51' E 014°16'0 0.0
2018-Apr-16 23:30N 40°51' E 014°16'0 0.0
2018-Apr-16 23:00N 40°51' E 014°16'0 0.0
2018-Apr-16 22:30N 40°51' E 014°16'0 0.0
2018-Apr-16 22:00N 40°51' E 014°16'0 0.0
2018-Apr-16 21:30N 40°51' E 014°16'0 0.0
2018-Apr-16 20:59N 40°51' E 014°16'0 0.0
2018-Apr-16 20:29N 40°51' E 014°16'0 0.0
2018-Apr-16 20:00N 40°51' E 014°16'0 0.0
2018-Apr-16 19:30N 40°51' E 014°16'0 0.0
2018-Apr-16 18:59N 40°51' E 014°16'0 0.0
2018-Apr-16 18:30N 40°51' E 014°16'0 0.0
2018-Apr-16 18:00N 40°51' E 014°16'0 0.0
2018-Apr-16 17:29N 40°51' E 014°16'0 0.0
2018-Apr-16 16:58N 40°51' E 014°16'0 0.0
2018-Apr-16 16:26N 40°51' E 014°16'0 0.1
2018-Apr-16 16:01N 40°51' E 014°16'0 0.0
2018-Apr-16 15:27N 40°51' E 014°16'0 0.0
2018-Apr-16 14:59N 40°51' E 014°16'0 0.0
2018-Apr-16 14:30N 40°51' E 014°16'0 0.0
2018-Apr-16 13:57N 40°51' E 014°16'0 0.0
2018-Apr-16 13:28N 40°51' E 014°16'0 0.0
2018-Apr-16 12:57N 40°51' E 014°16'0 0.0
2018-Apr-16 12:31N 40°51' E 014°16'0 0.0
2018-Apr-16 12:00N 40°51' E 014°16'0 0.0
2018-Apr-16 11:30N 40°51' E 014°16'0 0.0
2018-Apr-16 11:01N 40°51' E 014°16'0 0.0
2018-Apr-16 10:30N 40°51' E 014°16'0 0.0
2018-Apr-16 10:00N 40°51' E 014°16'0 0.0
2018-Apr-16 09:30N 40°51' E 014°16'0 0.0
2018-Apr-16 09:01N 40°51' E 014°16'0 0.0
2018-Apr-16 08:30N 40°51' E 014°16'0 0.0
2018-Apr-16 08:00N 40°51' E 014°16'0 0.0
2018-Apr-16 07:30N 40°51' E 014°16'0 0.0
2018-Apr-16 07:00N 40°51' E 014°16'0 0.0
2018-Apr-16 06:29N 40°51' E 014°16'0 0.0
2018-Apr-16 06:00N 40°51' E 014°16'0 0.0
2018-Apr-16 05:30N 40°51' E 014°16'0 0.0
2018-Apr-16 05:00N 40°51' E 014°16'0 0.0
2018-Apr-16 04:30N 40°51' E 014°16'0 0.0
2018-Apr-16 04:00N 40°51' E 014°16'0 0.0
2018-Apr-16 03:30N 40°51' E 014°16'0 0.0
2018-Apr-16 03:00N 40°51' E 014°16'0 0.0
2018-Apr-16 02:30N 40°51' E 014°16'0 0.0
2018-Apr-16 02:00N 40°51' E 014°16'0 0.0
2018-Apr-16 01:31N 40°51' E 014°16'0 0.0
2018-Apr-16 01:00N 40°51' E 014°16'0 0.0
2018-Apr-16 00:31N 40°51' E 014°16'0 0.0
2018-Apr-16 00:00N 40°51' E 014°16'0 0.0
2018-Apr-15 23:31N 40°51' E 014°16'0 0.0
2018-Apr-15 23:01N 40°51' E 014°16'0 0.0
2018-Apr-15 22:31N 40°51' E 014°16'0 0.0
2018-Apr-15 22:01N 40°51' E 014°16'0 0.0
2018-Apr-15 21:31N 40°51' E 014°16'0 0.0
2018-Apr-15 21:01N 40°51' E 014°16'0 0.0
2018-Apr-15 20:31N 40°51' E 014°16'0 0.0
2018-Apr-15 20:01N 40°51' E 014°16'0 0.0
2018-Apr-15 19:31N 40°51' E 014°16'0 0.0
2018-Apr-15 19:00N 40°51' E 014°16'0 0.0
2018-Apr-15 18:30N 40°51' E 014°16'0 0.0
2018-Apr-15 18:00N 40°51' E 014°16'0 0.0
2018-Apr-15 17:30N 40°51' E 014°16'0 0.0
2018-Apr-15 17:00N 40°51' E 014°16'0 0.0
2018-Apr-15 16:30N 40°51' E 014°16'0 0.0
2018-Apr-15 16:00N 40°51' E 014°16'0 0.0
2018-Apr-15 15:30N 40°51' E 014°16'0 0.0
2018-Apr-15 15:00N 40°51' E 014°16'0 0.0
2018-Apr-15 14:30N 40°51' E 014°16'0 0.0
2018-Apr-15 14:00N 40°51' E 014°16'0 0.0
2018-Apr-15 13:30N 40°51' E 014°16'0 0.0
2018-Apr-15 13:00N 40°51' E 014°16'0 0.0
2018-Apr-15 12:30N 40°51' E 014°16'0 0.0
2018-Apr-15 12:00N 40°51' E 014°16'0 0.0
2018-Apr-15 11:30N 40°51' E 014°16'0 0.0
2018-Apr-15 11:00N 40°51' E 014°16'0 0.0
2018-Apr-15 10:30N 40°51' E 014°16'0 0.0
2018-Apr-15 09:58N 40°51' E 014°16'0 0.0
2018-Apr-15 09:31N 40°51' E 014°16'0 0.0
2018-Apr-15 09:00N 40°51' E 014°16'0 0.0
2018-Apr-15 08:31N 40°51' E 014°16'0 0.0
2018-Apr-15 08:01N 40°51' E 014°16'0 0.0
2018-Apr-15 07:30N 40°51' E 014°16'0 0.0
2018-Apr-15 07:00N 40°51' E 014°16'0 0.0
2018-Apr-15 06:30N 40°51' E 014°16'0 0.0
2018-Apr-15 06:00N 40°51' E 014°16'0 0.0
2018-Apr-15 05:30N 40°51' E 014°16'2 4.2
2018-Apr-15 05:01N 40°49' E 014°17'4 7.1
2018-Apr-15 04:30N 40°45' E 014°15'3 6.1
2018-Apr-15 04:00N 40°43' E 014°13'3 5.9
2018-Apr-15 03:30N 40°40' E 014°11'3 5.9
2018-Apr-15 03:00N 40°37' E 014°10'3 5.9
2018-Apr-15 02:29N 40°35' E 014°08'3 7.0
2018-Apr-15 01:59N 40°31' E 014°06'5 8.9
2018-Apr-15 01:26N 40°27' E 014°04'4 8.7
2018-Apr-15 00:55N 40°23' E 014°02'45 9.2
2018-Apr-14 20:00N 39°38' E 013°49'510.0
2018-Apr-14 19:30N 39°34' E 013°47'7 9.9
2018-Apr-14 18:49N 39°27' E 013°46'3 9.9
2018-Apr-14 18:30N 39°24' E 013°45'510.0
2018-Apr-14 18:00N 39°19' E 013°44'510.2
2018-Apr-14 17:30N 39°14' E 013°42'510.0
2018-Apr-14 17:00N 39°09' E 013°41'5 9.9
2018-Apr-14 16:30N 39°04' E 013°40'5 9.6
2018-Apr-14 16:00N 38°59' E 013°38'5 9.8
2018-Apr-14 15:30N 38°55' E 013°37'7 9.7
2018-Apr-14 14:48N 38°48' E 013°36'3 9.5
2018-Apr-14 14:30N 38°45' E 013°35'6 9.5
2018-Apr-14 13:54N 38°39' E 013°34'4 9.4
2018-Apr-14 13:28N 38°36' E 013°33'4 9.0
2018-Apr-14 12:59N 38°31' E 013°33'4 8.8
2018-Apr-14 12:30N 38°27' E 013°32'4 8.8
2018-Apr-14 12:00N 38°23' E 013°31'5 9.3
2018-Apr-14 11:30N 38°18' E 013°29'5 9.5
2018-Apr-14 11:00N 38°14' E 013°28'5 9.7
2018-Apr-14 10:30N 38°09' E 013°26'3 6.7
2018-Apr-14 10:00N 38°08' E 013°22'0 0.2
2018-Apr-14 09:29N 38°08' E 013°22'0 0.0
2018-Apr-14 08:59N 38°08' E 013°22'0 0.0
2018-Apr-14 08:29N 38°08' E 013°22'0 0.0
2018-Apr-14 07:58N 38°08' E 013°22'0 0.0
2018-Apr-14 07:28N 38°08' E 013°22'0 0.0
2018-Apr-14 06:58N 38°08' E 013°22'0 0.0
2018-Apr-14 06:28N 38°08' E 013°22'0 0.0
2018-Apr-14 06:00N 38°08' E 013°22'0 0.0
2018-Apr-14 05:30N 38°08' E 013°22'0 0.0
2018-Apr-14 05:00N 38°08' E 013°22'0 0.0
2018-Apr-14 04:30N 38°08' E 013°22'0 0.0
2018-Apr-14 04:00N 38°08' E 013°22'0 0.0
2018-Apr-14 03:30N 38°08' E 013°22'0 0.0
2018-Apr-14 02:59N 38°08' E 013°22'0 0.0
2018-Apr-14 02:30N 38°08' E 013°22'0 0.0
2018-Apr-14 02:00N 38°08' E 013°22'0 0.0
2018-Apr-14 01:30N 38°08' E 013°22'0 0.0
2018-Apr-14 00:58N 38°08' E 013°22'0 0.0
2018-Apr-14 00:26N 38°08' E 013°22'0 0.0
2018-Apr-14 00:00N 38°08' E 013°22'0 0.0
2018-Apr-13 23:28N 38°08' E 013°22'0 0.0
2018-Apr-13 22:59N 38°08' E 013°22'0 0.0
2018-Apr-13 22:29N 38°08' E 013°22'0 0.0
2018-Apr-13 21:59N 38°08' E 013°22'0 0.0
2018-Apr-13 21:29N 38°08' E 013°22'0 0.0
2018-Apr-13 21:00N 38°08' E 013°22'0 0.0
2018-Apr-13 20:30N 38°08' E 013°22'0 0.0
2018-Apr-13 19:59N 38°08' E 013°22'0 0.0
2018-Apr-13 19:29N 38°08' E 013°22'0 0.0
2018-Apr-13 18:59N 38°08' E 013°22'0 0.0
2018-Apr-13 18:29N 38°08' E 013°22'0 0.0
2018-Apr-13 17:59N 38°08' E 013°22'0 0.0
2018-Apr-13 17:28N 38°08' E 013°22'0 0.0
2018-Apr-13 16:58N 38°08' E 013°22'0 0.0
2018-Apr-13 16:28N 38°08' E 013°22'0 0.0
2018-Apr-13 15:58N 38°08' E 013°22'0 0.0
2018-Apr-13 15:27N 38°08' E 013°22'0 0.0
2018-Apr-13 15:00N 38°08' E 013°22'0 0.0
2018-Apr-13 14:30N 38°08' E 013°22'0 0.0
2018-Apr-13 14:00N 38°08' E 013°22'0 0.0
2018-Apr-13 13:30N 38°08' E 013°22'0 0.0
2018-Apr-13 12:59N 38°08' E 013°22'0 0.0
2018-Apr-13 12:29N 38°08' E 013°22'0 0.0
2018-Apr-13 11:59N 38°08' E 013°22'0 0.0
2018-Apr-13 11:29N 38°08' E 013°22'0 0.0
2018-Apr-13 10:59N 38°08' E 013°22'0 0.0
2018-Apr-13 10:28N 38°08' E 013°22'0 0.0
2018-Apr-13 09:58N 38°08' E 013°22'0 0.0
2018-Apr-13 09:28N 38°08' E 013°22'0 0.0
2018-Apr-13 08:58N 38°08' E 013°22'0 0.0
2018-Apr-13 08:30N 38°08' E 013°22'0 0.0
2018-Apr-13 08:00N 38°08' E 013°22'0 0.0
2018-Apr-13 07:30N 38°08' E 013°22'0 0.0
2018-Apr-13 07:00N 38°08' E 013°22'0 0.0
2018-Apr-13 06:30N 38°08' E 013°22'0 0.0
2018-Apr-13 05:59N 38°08' E 013°22'0 0.0
2018-Apr-13 05:29N 38°08' E 013°22'0 0.0
2018-Apr-13 04:59N 38°08' E 013°22'0 0.0
2018-Apr-13 04:29N 38°08' E 013°22'0 0.0
2018-Apr-13 03:59N 38°08' E 013°22'0 0.0
2018-Apr-13 03:28N 38°08' E 013°22'0 0.0
2018-Apr-13 02:58N 38°08' E 013°22'0 0.0
2018-Apr-13 02:28N 38°08' E 013°22'0 0.0
2018-Apr-13 01:58N 38°08' E 013°22'0 0.0
2018-Apr-13 01:28N 38°08' E 013°22'0 0.0
2018-Apr-13 00:58N 38°08' E 013°22'0 0.0
2018-Apr-13 00:30N 38°08' E 013°22'0 0.0
2018-Apr-12 23:58N 38°08' E 013°22'0 0.0
2018-Apr-12 23:30N 38°08' E 013°22'0 0.0
2018-Apr-12 23:00N 38°08' E 013°22'0 0.0
2018-Apr-12 22:28N 38°08' E 013°22'0 0.0
2018-Apr-12 21:58N 38°08' E 013°22'0 0.0
2018-Apr-12 21:28N 38°08' E 013°22'0 0.0
2018-Apr-12 20:58N 38°08' E 013°22'0 0.0
2018-Apr-12 20:29N 38°08' E 013°22'0 0.0
2018-Apr-12 19:59N 38°08' E 013°22'0 0.0
2018-Apr-12 19:31N 38°08' E 013°22'0 0.0
2018-Apr-12 19:00N 38°08' E 013°22'0 0.0
2018-Apr-12 18:29N 38°08' E 013°22'0 0.0
2018-Apr-12 17:59N 38°08' E 013°22'0 0.0
2018-Apr-12 17:29N 38°08' E 013°22'0 0.0
2018-Apr-12 16:59N 38°08' E 013°22'0 0.0
2018-Apr-12 16:28N 38°08' E 013°22'0 0.0
2018-Apr-12 15:58N 38°08' E 013°22'0 0.0
2018-Apr-12 15:28N 38°08' E 013°22'0 0.0
2018-Apr-12 14:58N 38°08' E 013°22'0 0.0
2018-Apr-12 14:31N 38°08' E 013°22'0 0.0
2018-Apr-12 14:00N 38°08' E 013°22'0 0.0
2018-Apr-12 13:30N 38°08' E 013°22'0 0.0
2018-Apr-12 13:00N 38°08' E 013°22'0 0.4
2018-Apr-12 12:30N 38°08' E 013°22'0 0.0
2018-Apr-12 12:00N 38°08' E 013°22'0 0.0
2018-Apr-12 11:26N 38°08' E 013°22'0 0.0
2018-Apr-12 10:59N 38°08' E 013°22'0 0.0
2018-Apr-12 10:29N 38°08' E 013°22'0 0.0
2018-Apr-12 09:59N 38°08' E 013°22'0 0.0
2018-Apr-12 09:25N 38°08' E 013°22'0 0.0
2018-Apr-12 08:58N 38°08' E 013°22'0 0.0
2018-Apr-12 08:28N 38°08' E 013°22'0 0.0
2018-Apr-12 07:58N 38°08' E 013°22'0 0.0
2018-Apr-12 07:25N 38°08' E 013°22'0 0.5
2018-Apr-12 07:00N 38°08' E 013°22'0 0.0
2018-Apr-12 06:30N 38°08' E 013°22'0 0.0
2018-Apr-12 06:00N 38°08' E 013°22'0 0.0
2018-Apr-12 05:28N 38°08' E 013°22'0 0.0
2018-Apr-12 05:00N 38°08' E 013°22'0 0.0
2018-Apr-12 04:30N 38°08' E 013°22'0 0.0
2018-Apr-12 04:00N 38°08' E 013°22'0 0.0
2018-Apr-12 03:30N 38°08' E 013°22'0 0.0
2018-Apr-12 03:00N 38°08' E 013°22'0 0.0
2018-Apr-12 02:29N 38°08' E 013°22'0 0.0
2018-Apr-12 01:59N 38°08' E 013°22'0 0.0
2018-Apr-12 01:29N 38°08' E 013°22'0 0.0
2018-Apr-12 00:59N 38°08' E 013°22'0 0.0
2018-Apr-12 00:28N 38°08' E 013°22'0 0.0
2018-Apr-11 23:58N 38°08' E 013°22'0 0.0
2018-Apr-11 23:25N 38°08' E 013°22'0 0.0
2018-Apr-11 22:59N 38°08' E 013°22'0 0.0
2018-Apr-11 22:28N 38°08' E 013°22'0 0.0
2018-Apr-11 22:00N 38°08' E 013°22'0 0.0
2018-Apr-11 21:30N 38°08' E 013°22'0 0.0
2018-Apr-11 21:00N 38°08' E 013°22'0 0.0
2018-Apr-11 20:30N 38°08' E 013°22'0 0.0
2018-Apr-11 20:00N 38°08' E 013°22'0 0.0
2018-Apr-11 19:29N 38°08' E 013°22'0 0.0
2018-Apr-11 18:59N 38°08' E 013°22'0 0.0
2018-Apr-11 18:29N 38°08' E 013°22'0 0.0
2018-Apr-11 17:59N 38°08' E 013°22'0 0.0
2018-Apr-11 17:28N 38°08' E 013°22'0 0.0
2018-Apr-11 16:55N 38°08' E 013°22'0 0.0
2018-Apr-11 16:28N 38°08' E 013°22'0 0.0
2018-Apr-11 15:58N 38°08' E 013°22'0 0.0
2018-Apr-11 15:28N 38°08' E 013°22'0 0.0
2018-Apr-11 15:00N 38°08' E 013°22'0 0.0
2018-Apr-11 14:30N 38°08' E 013°22'0 0.0
2018-Apr-11 14:00N 38°08' E 013°22'0 0.0
2018-Apr-11 13:30N 38°08' E 013°22'0 0.0
2018-Apr-11 12:59N 38°08' E 013°22'0 0.0
2018-Apr-11 12:29N 38°08' E 013°22'0 0.0
2018-Apr-11 11:59N 38°08' E 013°22'0 0.0
2018-Apr-11 11:27N 38°08' E 013°22'0 0.0
2018-Apr-11 11:00N 38°08' E 013°22'0 0.0
2018-Apr-11 10:29N 38°08' E 013°22'0 0.0
2018-Apr-11 09:17N 38°08' E 013°22'0 0.0
2018-Apr-11 08:59N 38°08' E 013°22'0 0.0
2018-Apr-11 08:29N 38°08' E 013°22'0 0.0
2018-Apr-11 07:58N 38°08' E 013°22'0 0.0
2018-Apr-11 07:28N 38°08' E 013°22'0 0.0
2018-Apr-11 06:58N 38°08' E 013°22'0 0.0
2018-Apr-11 06:28N 38°08' E 013°22'0 0.0
2018-Apr-11 05:58N 38°08' E 013°22'0 0.0
2018-Apr-11 05:30N 38°08' E 013°22'0 0.0
2018-Apr-11 05:00N 38°08' E 013°22'0 0.0
2018-Apr-11 04:30N 38°08' E 013°22'0 0.0
2018-Apr-11 04:00N 38°08' E 013°22'0 0.0
2018-Apr-11 03:29N 38°08' E 013°22'0 0.0
2018-Apr-11 02:59N 38°08' E 013°22'0 0.0
2018-Apr-11 02:29N 38°08' E 013°22'0 0.0
2018-Apr-11 01:59N 38°08' E 013°22'0 0.0
2018-Apr-11 01:29N 38°08' E 013°22'0 0.0
2018-Apr-11 00:58N 38°08' E 013°22'0 0.0
2018-Apr-11 00:28N 38°08' E 013°22'0 0.0
2018-Apr-10 23:58N 38°08' E 013°22'0 0.0
2018-Apr-10 23:28N 38°08' E 013°22'0 0.0
2018-Apr-10 23:00N 38°08' E 013°22'0 0.0
2018-Apr-10 22:30N 38°08' E 013°22'0 0.0
2018-Apr-10 22:00N 38°08' E 013°22'0 0.0
2018-Apr-10 21:30N 38°08' E 013°22'0 0.0
2018-Apr-10 21:00N 38°08' E 013°22'0 0.0
2018-Apr-10 20:30N 38°08' E 013°22'0 0.0
2018-Apr-10 19:59N 38°08' E 013°22'0 0.0
2018-Apr-10 19:29N 38°08' E 013°22'0 0.0
2018-Apr-10 18:59N 38°08' E 013°22'0 0.0
2018-Apr-10 18:29N 38°08' E 013°22'0 0.0
2018-Apr-10 17:58N 38°08' E 013°22'0 0.0
2018-Apr-10 17:28N 38°08' E 013°22'0 0.0
2018-Apr-10 16:55N 38°08' E 013°22'0 0.0
2018-Apr-10 16:28N 38°08' E 013°22'0 0.0
2018-Apr-10 15:58N 38°08' E 013°22'0 0.0
2018-Apr-10 15:30N 38°08' E 013°22'0 0.0
2018-Apr-10 15:00N 38°08' E 013°22'0 0.0
2018-Apr-10 14:30N 38°08' E 013°22'0 0.0
2018-Apr-10 13:47N 38°08' E 013°22'0 0.0
2018-Apr-10 13:29N 38°08' E 013°22'0 0.0
2018-Apr-10 13:00N 38°08' E 013°22'0 0.0
2018-Apr-10 12:28N 38°08' E 013°22'0 0.0
2018-Apr-10 12:00N 38°08' E 013°22'0 0.0
2018-Apr-10 11:30N 38°08' E 013°22'0 0.0
2018-Apr-10 11:00N 38°08' E 013°22'0 0.0
2018-Apr-10 10:27N 38°08' E 013°22'0 0.0
2018-Apr-10 09:59N 38°08' E 013°22'0 0.0
2018-Apr-10 09:29N 38°08' E 013°22'0 0.0
2018-Apr-10 08:59N 38°08' E 013°22'0 0.0
2018-Apr-10 08:29N 38°08' E 013°22'0 0.0
2018-Apr-10 07:59N 38°08' E 013°22'0 0.0
2018-Apr-10 07:28N 38°08' E 013°22'0 0.0
2018-Apr-10 06:58N 38°08' E 013°22'0 0.0
2018-Apr-10 06:28N 38°08' E 013°22'0 0.0
2018-Apr-10 05:58N 38°08' E 013°22'0 0.0
2018-Apr-10 05:28N 38°08' E 013°22'0 0.0
2018-Apr-10 05:00N 38°08' E 013°22'0 0.0
2018-Apr-10 04:30N 38°08' E 013°22'0 0.0
2018-Apr-10 04:00N 38°08' E 013°22'0 0.0
2018-Apr-10 03:30N 38°08' E 013°22'0 0.0
2018-Apr-10 02:59N 38°08' E 013°22'0 0.0
2018-Apr-10 02:29N 38°08' E 013°22'0 0.0
2018-Apr-10 01:59N 38°08' E 013°22'0 0.0
2018-Apr-10 01:29N 38°08' E 013°22'0 0.0
2018-Apr-10 00:59N 38°08' E 013°22'0 0.0
2018-Apr-10 00:30N 38°08' E 013°22'0 0.0
2018-Apr-09 23:58N 38°08' E 013°22'0 0.0
2018-Apr-09 23:28N 38°08' E 013°22'0 0.0
2018-Apr-09 22:58N 38°08' E 013°22'0 0.0
2018-Apr-09 22:31N 38°08' E 013°22'0 0.0
2018-Apr-09 22:00N 38°08' E 013°22'0 0.0
2018-Apr-09 21:30N 38°08' E 013°22'0 0.0
2018-Apr-09 21:00N 38°08' E 013°22'0 0.0
2018-Apr-09 20:30N 38°08' E 013°22'0 0.0
2018-Apr-09 19:59N 38°08' E 013°22'0 0.0
2018-Apr-09 19:23N 38°08' E 013°22'0 0.0
2018-Apr-09 18:59N 38°08' E 013°22'0 0.0
2018-Apr-09 18:29N 38°08' E 013°22'0 0.0
2018-Apr-09 17:59N 38°08' E 013°22'0 0.0
2018-Apr-09 17:28N 38°08' E 013°22'0 0.0
2018-Apr-09 16:58N 38°08' E 013°22'0 0.0
2018-Apr-09 16:28N 38°08' E 013°22'0 0.0
2018-Apr-09 15:58N 38°08' E 013°22'0 0.0
2018-Apr-09 15:30N 38°08' E 013°22'0 0.0
2018-Apr-09 15:00N 38°08' E 013°22'0 0.0
2018-Apr-09 14:30N 38°08' E 013°22'0 0.0
2018-Apr-09 14:00N 38°08' E 013°22'0 0.0
2018-Apr-09 13:30N 38°08' E 013°22'0 0.0
2018-Apr-09 12:59N 38°08' E 013°22'0 0.0
2018-Apr-09 12:29N 38°08' E 013°22'0 0.0
2018-Apr-09 11:59N 38°08' E 013°22'0 0.0
2018-Apr-09 11:29N 38°08' E 013°22'0 0.0
2018-Apr-09 10:59N 38°08' E 013°22'0 0.0
2018-Apr-09 10:28N 38°08' E 013°22'0 0.0
2018-Apr-09 09:58N 38°08' E 013°22'0 0.0
2018-Apr-09 09:28N 38°08' E 013°22'0 0.0
2018-Apr-09 08:58N 38°08' E 013°22'0 0.0
2018-Apr-09 08:30N 38°08' E 013°22'0 0.0
2018-Apr-09 08:00N 38°08' E 013°22'0 0.0
2018-Apr-09 07:30N 38°08' E 013°22'0 0.0
2018-Apr-09 07:00N 38°08' E 013°22'0 0.0
2018-Apr-09 06:30N 38°08' E 013°22'0 0.0
2018-Apr-09 05:59N 38°08' E 013°22'0 0.0
2018-Apr-09 05:29N 38°08' E 013°22'0 0.0
2018-Apr-09 04:59N 38°08' E 013°22'0 0.0
2018-Apr-09 04:29N 38°08' E 013°22'0 0.0
2018-Apr-09 03:59N 38°08' E 013°22'0 0.0
2018-Apr-09 03:28N 38°08' E 013°22'0 0.0
2018-Apr-09 02:58N 38°08' E 013°22'0 0.0
2018-Apr-09 02:28N 38°08' E 013°22'0 0.0
2018-Apr-09 01:58N 38°08' E 013°22'0 0.0
2018-Apr-09 01:30N 38°08' E 013°22'0 0.0
2018-Apr-09 01:00N 38°08' E 013°22'0 0.0
2018-Apr-09 00:30N 38°08' E 013°22'0 0.0
2018-Apr-09 00:00N 38°08' E 013°22'0 0.0
2018-Apr-08 23:30N 38°08' E 013°22'0 0.0
2018-Apr-08 22:59N 38°08' E 013°22'0 0.0
2018-Apr-08 22:29N 38°08' E 013°22'0 0.0
2018-Apr-08 21:59N 38°08' E 013°22'0 0.0
2018-Apr-08 21:29N 38°08' E 013°22'0 0.0
2018-Apr-08 20:59N 38°08' E 013°22'0 0.0
2018-Apr-08 20:28N 38°08' E 013°22'0 0.0
2018-Apr-08 19:58N 38°08' E 013°22'0 0.0
2018-Apr-08 19:28N 38°08' E 013°22'0 0.0
2018-Apr-08 18:58N 38°08' E 013°22'0 0.0
2018-Apr-08 18:30N 38°08' E 013°22'0 0.0
2018-Apr-08 18:00N 38°08' E 013°22'0 0.0
2018-Apr-08 17:30N 38°08' E 013°22'0 0.0
2018-Apr-08 17:00N 38°08' E 013°22'0 0.0
2018-Apr-08 16:27N 38°08' E 013°22'0 0.0
2018-Apr-08 15:59N 38°08' E 013°22'0 0.0
2018-Apr-08 15:29N 38°08' E 013°22'0 0.0
2018-Apr-08 14:59N 38°08' E 013°22'0 0.0
2018-Apr-08 14:29N 38°08' E 013°22'0 0.0
2018-Apr-08 13:59N 38°08' E 013°22'0 0.0
2018-Apr-08 13:28N 38°08' E 013°22'0 0.0
2018-Apr-08 12:58N 38°08' E 013°22'0 0.0
2018-Apr-08 12:28N 38°08' E 013°22'0 0.0
2018-Apr-08 11:58N 38°08' E 013°22'0 0.0
2018-Apr-08 11:30N 38°08' E 013°22'0 0.0
2018-Apr-08 11:00N 38°08' E 013°22'0 0.0
2018-Apr-08 10:30N 38°08' E 013°22'0 0.0
2018-Apr-08 10:00N 38°08' E 013°22'0 0.0
2018-Apr-08 09:30N 38°08' E 013°22'0 0.0
2018-Apr-08 08:59N 38°08' E 013°22'0 0.0
2018-Apr-08 08:29N 38°08' E 013°22'0 0.0
2018-Apr-08 07:59N 38°08' E 013°22'0 0.0
2018-Apr-08 07:29N 38°08' E 013°22'0 0.0
2018-Apr-08 06:58N 38°08' E 013°22'0 0.0
2018-Apr-08 06:28N 38°08' E 013°22'0 0.0
2018-Apr-08 05:58N 38°08' E 013°22'0 0.0
2018-Apr-08 05:28N 38°08' E 013°22'0 0.0
2018-Apr-08 04:58N 38°08' E 013°22'0 0.0
2018-Apr-08 04:30N 38°08' E 013°22'0 0.0
2018-Apr-08 04:00N 38°08' E 013°22'0 0.0
2018-Apr-08 03:30N 38°08' E 013°22'0 0.0
2018-Apr-08 03:00N 38°08' E 013°22'0 0.0
2018-Apr-08 02:30N 38°08' E 013°22'0 0.0
2018-Apr-08 01:56N 38°08' E 013°22'0 0.0
2018-Apr-08 01:29N 38°08' E 013°22'0 0.0
2018-Apr-08 00:59N 38°08' E 013°22'0 0.0
2018-Apr-08 00:29N 38°08' E 013°22'0 0.0
2018-Apr-07 23:58N 38°08' E 013°22'0 0.0
2018-Apr-07 23:28N 38°08' E 013°22'0 0.0
2018-Apr-07 22:58N 38°08' E 013°22'0 0.0
2018-Apr-07 22:28N 38°08' E 013°22'0 0.0
2018-Apr-07 21:58N 38°08' E 013°22'0 0.0
2018-Apr-07 21:30N 38°08' E 013°22'0 0.0
2018-Apr-07 21:00N 38°08' E 013°22'0 0.0
2018-Apr-07 20:30N 38°08' E 013°22'0 0.0
2018-Apr-07 20:01N 38°08' E 013°22'0 0.0
2018-Apr-07 19:30N 38°08' E 013°22'  
Track history (hours):
 
Tides and Currents Weather Stations Pressure Air Temp Water Temp Dewpoint Dewpoint Depression Visibility Wind Speed Wind Dir Waves Ship Positions

Mer Provider

Last reported at 2018-Apr-17 19:29 UTC. Time now 2018-Apr-20 05:06 UTC.
Position N 40°52' E 013°24'.

Length 45 m; draft 3.8 m.

Type: Tug. MMSI: 247386200.

Date/timePositionNaut miles runAvg speedWind from/ knotsBaromVisibWave heightAir tempDewpointWater temp
2018-Apr-17 19:29N 40°52' E 013°24'5 6.6
2018-Apr-17 18:46N 40°50' E 013°29'11 6.5
2018-Apr-17 17:05N 40°44' E 013°41'1 6.5
2018-Apr-17 16:59N 40°43' E 013°42'3 6.6
2018-Apr-17 16:29N 40°41' E 013°45'3 6.7
2018-Apr-17 16:00N 40°39' E 013°49'3 6.6
2018-Apr-17 15:30N 40°38' E 013°53'4 7.4
2018-Apr-17 14:58N 40°39' E 013°58'3 7.4
2018-Apr-17 14:30N 40°39' E 014°03'4 7.3
2018-Apr-17 14:00N 40°41' E 014°06'4 7.6
2018-Apr-17 13:30N 40°44' E 014°10'4 7.3
2018-Apr-17 13:00N 40°47' E 014°13'3 6.1
2018-Apr-17 12:30N 40°49' E 014°16'1 2.5
2018-Apr-17 12:00N 40°50' E 014°17'1 1.6
2018-Apr-17 11:30N 40°51' E 014°16'0 0.0
2018-Apr-17 10:59N 40°51' E 014°16'0 0.0
2018-Apr-17 10:30N 40°51' E 014°16'0 0.0
2018-Apr-17 09:59N 40°51' E 014°16'0 0.0
2018-Apr-17 09:30N 40°51' E 014°16'0 0.0
2018-Apr-17 09:00N 40°51' E 014°16'0 0.0
2018-Apr-17 08:29N 40°51' E 014°16'0 0.0
2018-Apr-17 07:59N 40°51' E 014°16'0 0.0
2018-Apr-17 07:30N 40°51' E 014°16'0 0.0
2018-Apr-17 06:58N 40°51' E 014°16'0 0.0
2018-Apr-17 06:30N 40°51' E 014°16'0 0.0
2018-Apr-17 06:00N 40°51' E 014°16'0 0.0
2018-Apr-17 05:30N 40°51' E 014°16'0 0.0
2018-Apr-17 05:00N 40°51' E 014°16'0 0.0
2018-Apr-17 04:30N 40°51' E 014°16'0 0.0
2018-Apr-17 04:00N 40°51' E 014°16'0 0.0
2018-Apr-17 03:30N 40°51' E 014°16'0 0.0
2018-Apr-17 03:00N 40°51' E 014°16'0 0.0
2018-Apr-17 02:30N 40°51' E 014°16'0 0.0
2018-Apr-17 02:00N 40°51' E 014°16'0 0.0
2018-Apr-17 01:30N 40°51' E 014°16'0 0.0
2018-Apr-17 00:59N 40°51' E 014°16'0 0.0
2018-Apr-17 00:30N 40°51' E 014°16'0 0.0
2018-Apr-17 00:00N 40°51' E 014°16'0 0.0
2018-Apr-16 23:30N 40°51' E 014°16'0 0.0
2018-Apr-16 23:00N 40°51' E 014°16'0 0.0
2018-Apr-16 22:30N 40°51' E 014°16'0 0.0
2018-Apr-16 22:00N 40°51' E 014°16'0 0.0
2018-Apr-16 21:30N 40°51' E 014°16'0 0.0
2018-Apr-16 20:59N 40°51' E 014°16'0 0.0
2018-Apr-16 20:29N 40°51' E 014°16'0 0.0
2018-Apr-16 20:00N 40°51' E 014°16'0 0.0
2018-Apr-16 19:30N 40°51' E 014°16'0 0.0
2018-Apr-16 18:59N 40°51' E 014°16'0 0.0
2018-Apr-16 18:30N 40°51' E 014°16'0 0.0
2018-Apr-16 18:00N 40°51' E 014°16'0 0.0
2018-Apr-16 17:29N 40°51' E 014°16'0 0.0
2018-Apr-16 16:58N 40°51' E 014°16'0 0.0
2018-Apr-16 16:26N 40°51' E 014°16'0 0.1
2018-Apr-16 16:01N 40°51' E 014°16'0 0.0
2018-Apr-16 15:27N 40°51' E 014°16'0 0.0
2018-Apr-16 14:59N 40°51' E 014°16'0 0.0
2018-Apr-16 14:30N 40°51' E 014°16'0 0.0
2018-Apr-16 13:57N 40°51' E 014°16'0 0.0
2018-Apr-16 13:28N 40°51' E 014°16'0 0.0
2018-Apr-16 12:57N 40°51' E 014°16'0 0.0
2018-Apr-16 12:31N 40°51' E 014°16'0 0.0
2018-Apr-16 12:00N 40°51' E 014°16'0 0.0
2018-Apr-16 11:30N 40°51' E 014°16'0 0.0
2018-Apr-16 11:01N 40°51' E 014°16'0 0.0
2018-Apr-16 10:30N 40°51' E 014°16'0 0.0
2018-Apr-16 10:00N 40°51' E 014°16'0 0.0
2018-Apr-16 09:30N 40°51' E 014°16'0 0.0
2018-Apr-16 09:01N 40°51' E 014°16'0 0.0
2018-Apr-16 08:30N 40°51' E 014°16'0 0.0
2018-Apr-16 08:00N 40°51' E 014°16'0 0.0
2018-Apr-16 07:30N 40°51' E 014°16'0 0.0
2018-Apr-16 07:00N 40°51' E 014°16'0 0.0
2018-Apr-16 06:29N 40°51' E 014°16'0 0.0
2018-Apr-16 06:00N 40°51' E 014°16'0 0.0
2018-Apr-16 05:30N 40°51' E 014°16'0 0.0
2018-Apr-16 05:00N 40°51' E 014°16'0 0.0
2018-Apr-16 04:30N 40°51' E 014°16'0 0.0
2018-Apr-16 04:00N 40°51' E 014°16'0 0.0
2018-Apr-16 03:30N 40°51' E 014°16'0 0.0
2018-Apr-16 03:00N 40°51' E 014°16'0 0.0
2018-Apr-16 02:30N 40°51' E 014°16'0 0.0
2018-Apr-16 02:00N 40°51' E 014°16'0 0.0
2018-Apr-16 01:31N 40°51' E 014°16'0 0.0
2018-Apr-16 01:00N 40°51' E 014°16'0 0.0
2018-Apr-16 00:31N 40°51' E 014°16'0 0.0
2018-Apr-16 00:00N 40°51' E 014°16'0 0.0
2018-Apr-15 23:31N 40°51' E 014°16'0 0.0
2018-Apr-15 23:01N 40°51' E 014°16'0 0.0
2018-Apr-15 22:31N 40°51' E 014°16'0 0.0
2018-Apr-15 22:01N 40°51' E 014°16'0 0.0
2018-Apr-15 21:31N 40°51' E 014°16'0 0.0
2018-Apr-15 21:01N 40°51' E 014°16'0 0.0
2018-Apr-15 20:31N 40°51' E 014°16'0 0.0
2018-Apr-15 20:01N 40°51' E 014°16'0 0.0
2018-Apr-15 19:31N 40°51' E 014°16'0 0.0
2018-Apr-15 19:00N 40°51' E 014°16'0 0.0
2018-Apr-15 18:30N 40°51' E 014°16'0 0.0
2018-Apr-15 18:00N 40°51' E 014°16'0 0.0
2018-Apr-15 17:30N 40°51' E 014°16'0 0.0
2018-Apr-15 17:00N 40°51' E 014°16'0 0.0
2018-Apr-15 16:30N 40°51' E 014°16'0 0.0
2018-Apr-15 16:00N 40°51' E 014°16'0 0.0
2018-Apr-15 15:30N 40°51' E 014°16'0 0.0
2018-Apr-15 15:00N 40°51' E 014°16'0 0.0
2018-Apr-15 14:30N 40°51' E 014°16'0 0.0
2018-Apr-15 14:00N 40°51' E 014°16'0 0.0
2018-Apr-15 13:30N 40°51' E 014°16'0 0.0
2018-Apr-15 13:00N 40°51' E 014°16'0 0.0
2018-Apr-15 12:30N 40°51' E 014°16'0 0.0
2018-Apr-15 12:00N 40°51' E 014°16'0 0.0
2018-Apr-15 11:30N 40°51' E 014°16'0 0.0
2018-Apr-15 11:00N 40°51' E 014°16'0 0.0
2018-Apr-15 10:30N 40°51' E 014°16'0 0.0
2018-Apr-15 09:58N 40°51' E 014°16'0 0.0
2018-Apr-15 09:31N 40°51' E 014°16'0 0.0
2018-Apr-15 09:00N 40°51' E 014°16'0 0.0
2018-Apr-15 08:31N 40°51' E 014°16'0 0.0
2018-Apr-15 08:01N 40°51' E 014°16'0 0.0
2018-Apr-15 07:30N 40°51' E 014°16'0 0.0
2018-Apr-15 07:00N 40°51' E 014°16'0 0.0
2018-Apr-15 06:30N 40°51' E 014°16'0 0.0
2018-Apr-15 06:00N 40°51' E 014°16'0 0.0
2018-Apr-15 05:30N 40°51' E 014°16'2 4.2
2018-Apr-15 05:01N 40°49' E 014°17'4 7.1
2018-Apr-15 04:30N 40°45' E 014°15'3 6.1
2018-Apr-15 04:00N 40°43' E 014°13'3 5.9
2018-Apr-15 03:30N 40°40' E 014°11'3 5.9
2018-Apr-15 03:00N 40°37' E 014°10'3 5.9
2018-Apr-15 02:29N 40°35' E 014°08'3 7.0
2018-Apr-15 01:59N 40°31' E 014°06'5 8.9
2018-Apr-15 01:26N 40°27' E 014°04'4 8.7
2018-Apr-15 00:55N 40°23' E 014°02'45 9.2
2018-Apr-14 20:00N 39°38' E 013°49'510.0
2018-Apr-14 19:30N 39°34' E 013°47'7 9.9
2018-Apr-14 18:49N 39°27' E 013°46'3 9.9
2018-Apr-14 18:30N 39°24' E 013°45'510.0
2018-Apr-14 18:00N 39°19' E 013°44'510.2
2018-Apr-14 17:30N 39°14' E 013°42'510.0
2018-Apr-14 17:00N 39°09' E 013°41'5 9.9
2018-Apr-14 16:30N 39°04' E 013°40'5 9.6
2018-Apr-14 16:00N 38°59' E 013°38'5 9.8
2018-Apr-14 15:30N 38°55' E 013°37'7 9.7
2018-Apr-14 14:48N 38°48' E 013°36'3 9.5
2018-Apr-14 14:30N 38°45' E 013°35'6 9.5
2018-Apr-14 13:54N 38°39' E 013°34'4 9.4
2018-Apr-14 13:28N 38°36' E 013°33'4 9.0
2018-Apr-14 12:59N 38°31' E 013°33'4 8.8
2018-Apr-14 12:30N 38°27' E 013°32'4 8.8
2018-Apr-14 12:00N 38°23' E 013°31'5 9.3
2018-Apr-14 11:30N 38°18' E 013°29'5 9.5
2018-Apr-14 11:00N 38°14' E 013°28'5 9.7
2018-Apr-14 10:30N 38°09' E 013°26'3 6.7
2018-Apr-14 10:00N 38°08' E 013°22'0 0.2
2018-Apr-14 09:29N 38°08' E 013°22'0 0.0
2018-Apr-14 08:59N 38°08' E 013°22'0 0.0
2018-Apr-14 08:29N 38°08' E 013°22'0 0.0
2018-Apr-14 07:58N 38°08' E 013°22'0 0.0
2018-Apr-14 07:28N 38°08' E 013°22'0 0.0
2018-Apr-14 06:58N 38°08' E 013°22'0 0.0
2018-Apr-14 06:28N 38°08' E 013°22'0 0.0
2018-Apr-14 06:00N 38°08' E 013°22'0 0.0
2018-Apr-14 05:30N 38°08' E 013°22'0 0.0
2018-Apr-14 05:00N 38°08' E 013°22'0 0.0
2018-Apr-14 04:30N 38°08' E 013°22'0 0.0
2018-Apr-14 04:00N 38°08' E 013°22'0 0.0
2018-Apr-14 03:30N 38°08' E 013°22'0 0.0
2018-Apr-14 02:59N 38°08' E 013°22'0 0.0
2018-Apr-14 02:30N 38°08' E 013°22'0 0.0
2018-Apr-14 02:00N 38°08' E 013°22'0 0.0
2018-Apr-14 01:30N 38°08' E 013°22'0 0.0
2018-Apr-14 00:58N 38°08' E 013°22'0 0.0
2018-Apr-14 00:26N 38°08' E 013°22'0 0.0
2018-Apr-14 00:00N 38°08' E 013°22'0 0.0
2018-Apr-13 23:28N 38°08' E 013°22'0 0.0
2018-Apr-13 22:59N 38°08' E 013°22'0 0.0
2018-Apr-13 22:29N 38°08' E 013°22'0 0.0
2018-Apr-13 21:59N 38°08' E 013°22'0 0.0
2018-Apr-13 21:29N 38°08' E 013°22'0 0.0
2018-Apr-13 21:00N 38°08' E 013°22'0 0.0
2018-Apr-13 20:30N 38°08' E 013°22'0 0.0
2018-Apr-13 19:59N 38°08' E 013°22'0 0.0
2018-Apr-13 19:29N 38°08' E 013°22'0 0.0
2018-Apr-13 18:59N 38°08' E 013°22'0 0.0
2018-Apr-13 18:29N 38°08' E 013°22'0 0.0
2018-Apr-13 17:59N 38°08' E 013°22'0 0.0
2018-Apr-13 17:28N 38°08' E 013°22'0 0.0
2018-Apr-13 16:58N 38°08' E 013°22'0 0.0
2018-Apr-13 16:28N 38°08' E 013°22'0 0.0
2018-Apr-13 15:58N 38°08' E 013°22'0 0.0
2018-Apr-13 15:27N 38°08' E 013°22'0 0.0
2018-Apr-13 15:00N 38°08' E 013°22'0 0.0
2018-Apr-13 14:30N 38°08' E 013°22'0 0.0
2018-Apr-13 14:00N 38°08' E 013°22'0 0.0
2018-Apr-13 13:30N 38°08' E 013°22'0 0.0
2018-Apr-13 12:59N 38°08' E 013°22'0 0.0
2018-Apr-13 12:29N 38°08' E 013°22'0 0.0
2018-Apr-13 11:59N 38°08' E 013°22'0 0.0
2018-Apr-13 11:29N 38°08' E 013°22'0 0.0
2018-Apr-13 10:59N 38°08' E 013°22'0 0.0
2018-Apr-13 10:28N 38°08' E 013°22'0 0.0
2018-Apr-13 09:58N 38°08' E 013°22'0 0.0
2018-Apr-13 09:28N 38°08' E 013°22'0 0.0
2018-Apr-13 08:58N 38°08' E 013°22'0 0.0
2018-Apr-13 08:30N 38°08' E 013°22'0 0.0
2018-Apr-13 08:00N 38°08' E 013°22'0 0.0
2018-Apr-13 07:30N 38°08' E 013°22'0 0.0
2018-Apr-13 07:00N 38°08' E 013°22'0 0.0
2018-Apr-13 06:30N 38°08' E 013°22'0 0.0
2018-Apr-13 05:59N 38°08' E 013°22'0 0.0
2018-Apr-13 05:29N 38°08' E 013°22'0 0.0
2018-Apr-13 04:59N 38°08' E 013°22'0 0.0
2018-Apr-13 04:29N 38°08' E 013°22'0 0.0
2018-Apr-13 03:59N 38°08' E 013°22'0 0.0
2018-Apr-13 03:28N 38°08' E 013°22'0 0.0
2018-Apr-13 02:58N 38°08' E 013°22'0 0.0
2018-Apr-13 02:28N 38°08' E 013°22'0 0.0
2018-Apr-13 01:58N 38°08' E 013°22'0 0.0
2018-Apr-13 01:28N 38°08' E 013°22'0 0.0
2018-Apr-13 00:58N 38°08' E 013°22'0 0.0
2018-Apr-13 00:30N 38°08' E 013°22'0 0.0
2018-Apr-12 23:58N 38°08' E 013°22'0 0.0
2018-Apr-12 23:30N 38°08' E 013°22'0 0.0
2018-Apr-12 23:00N 38°08' E 013°22'0 0.0
2018-Apr-12 22:28N 38°08' E 013°22'0 0.0
2018-Apr-12 21:58N 38°08' E 013°22'0 0.0
2018-Apr-12 21:28N 38°08' E 013°22'0 0.0
2018-Apr-12 20:58N 38°08' E 013°22'0 0.0
2018-Apr-12 20:29N 38°08' E 013°22'0 0.0
2018-Apr-12 19:59N 38°08' E 013°22'0 0.0
2018-Apr-12 19:31N 38°08' E 013°22'0 0.0
2018-Apr-12 19:00N 38°08' E 013°22'0 0.0
2018-Apr-12 18:29N 38°08' E 013°22'0 0.0
2018-Apr-12 17:59N 38°08' E 013°22'0 0.0
2018-Apr-12 17:29N 38°08' E 013°22'0 0.0
2018-Apr-12 16:59N 38°08' E 013°22'0 0.0
2018-Apr-12 16:28N 38°08' E 013°22'0 0.0
2018-Apr-12 15:58N 38°08' E 013°22'0 0.0
2018-Apr-12 15:28N 38°08' E 013°22'0 0.0
2018-Apr-12 14:58N 38°08' E 013°22'0 0.0
2018-Apr-12 14:31N 38°08' E 013°22'0 0.0
2018-Apr-12 14:00N 38°08' E 013°22'0 0.0
2018-Apr-12 13:30N 38°08' E 013°22'0 0.0
2018-Apr-12 13:00N 38°08' E 013°22'0 0.4
2018-Apr-12 12:30N 38°08' E 013°22'0 0.0
2018-Apr-12 12:00N 38°08' E 013°22'0 0.0
2018-Apr-12 11:26N 38°08' E 013°22'0 0.0
2018-Apr-12 10:59N 38°08' E 013°22'0 0.0
2018-Apr-12 10:29N 38°08' E 013°22'0 0.0
2018-Apr-12 09:59N 38°08' E 013°22'0 0.0
2018-Apr-12 09:25N 38°08' E 013°22'0 0.0
2018-Apr-12 08:58N 38°08' E 013°22'0 0.0
2018-Apr-12 08:28N 38°08' E 013°22'0 0.0
2018-Apr-12 07:58N 38°08' E 013°22'0 0.0
2018-Apr-12 07:25N 38°08' E 013°22'0 0.5
2018-Apr-12 07:00N 38°08' E 013°22'0 0.0
2018-Apr-12 06:30N 38°08' E 013°22'0 0.0
2018-Apr-12 06:00N 38°08' E 013°22'0 0.0
2018-Apr-12 05:28N 38°08' E 013°22'0 0.0
2018-Apr-12 05:00N 38°08' E 013°22'0 0.0
2018-Apr-12 04:30N 38°08' E 013°22'0 0.0
2018-Apr-12 04:00N 38°08' E 013°22'0 0.0
2018-Apr-12 03:30N 38°08' E 013°22'0 0.0
2018-Apr-12 03:00N 38°08' E 013°22'0 0.0
2018-Apr-12 02:29N 38°08' E 013°22'0 0.0
2018-Apr-12 01:59N 38°08' E 013°22'0 0.0
2018-Apr-12 01:29N 38°08' E 013°22'0 0.0
2018-Apr-12 00:59N 38°08' E 013°22'0 0.0
2018-Apr-12 00:28N 38°08' E 013°22'0 0.0
2018-Apr-11 23:58N 38°08' E 013°22'0 0.0
2018-Apr-11 23:25N 38°08' E 013°22'0 0.0
2018-Apr-11 22:59N 38°08' E 013°22'0 0.0
2018-Apr-11 22:28N 38°08' E 013°22'0 0.0
2018-Apr-11 22:00N 38°08' E 013°22'0 0.0
2018-Apr-11 21:30N 38°08' E 013°22'0 0.0
2018-Apr-11 21:00N 38°08' E 013°22'0 0.0
2018-Apr-11 20:30N 38°08' E 013°22'0 0.0
2018-Apr-11 20:00N 38°08' E 013°22'0 0.0
2018-Apr-11 19:29N 38°08' E 013°22'0 0.0
2018-Apr-11 18:59N 38°08' E 013°22'0 0.0
2018-Apr-11 18:29N 38°08' E 013°22'0 0.0
2018-Apr-11 17:59N 38°08' E 013°22'0 0.0
2018-Apr-11 17:28N 38°08' E 013°22'0 0.0
2018-Apr-11 16:55N 38°08' E 013°22'0 0.0
2018-Apr-11 16:28N 38°08' E 013°22'0 0.0
2018-Apr-11 15:58N 38°08' E 013°22'0 0.0
2018-Apr-11 15:28N 38°08' E 013°22'0 0.0
2018-Apr-11 15:00N 38°08' E 013°22'0 0.0
2018-Apr-11 14:30N 38°08' E 013°22'0 0.0
2018-Apr-11 14:00N 38°08' E 013°22'0 0.0
2018-Apr-11 13:30N 38°08' E 013°22'0 0.0
2018-Apr-11 12:59N 38°08' E 013°22'0 0.0
2018-Apr-11 12:29N 38°08' E 013°22'0 0.0
2018-Apr-11 11:59N 38°08' E 013°22'0 0.0
2018-Apr-11 11:27N 38°08' E 013°22'0 0.0
2018-Apr-11 11:00N 38°08' E 013°22'0 0.0
2018-Apr-11 10:29N 38°08' E 013°22'0 0.0
2018-Apr-11 09:17N 38°08' E 013°22'0 0.0
2018-Apr-11 08:59N 38°08' E 013°22'0 0.0
2018-Apr-11 08:29N 38°08' E 013°22'0 0.0
2018-Apr-11 07:58N 38°08' E 013°22'0 0.0
2018-Apr-11 07:28N 38°08' E 013°22'0 0.0
2018-Apr-11 06:58N 38°08' E 013°22'0 0.0
2018-Apr-11 06:28N 38°08' E 013°22'0 0.0
2018-Apr-11 05:58N 38°08' E 013°22'0 0.0
2018-Apr-11 05:30N 38°08' E 013°22'0 0.0
2018-Apr-11 05:00N 38°08' E 013°22'0 0.0
2018-Apr-11 04:30N 38°08' E 013°22'0 0.0
2018-Apr-11 04:00N 38°08' E 013°22'0 0.0
2018-Apr-11 03:29N 38°08' E 013°22'0 0.0
2018-Apr-11 02:59N 38°08' E 013°22'0 0.0
2018-Apr-11 02:29N 38°08' E 013°22'0 0.0
2018-Apr-11 01:59N 38°08' E 013°22'0 0.0
2018-Apr-11 01:29N 38°08' E 013°22'0 0.0
2018-Apr-11 00:58N 38°08' E 013°22'0 0.0
2018-Apr-11 00:28N 38°08' E 013°22'0 0.0
2018-Apr-10 23:58N 38°08' E 013°22'0 0.0
2018-Apr-10 23:28N 38°08' E 013°22'0 0.0
2018-Apr-10 23:00N 38°08' E 013°22'0 0.0
2018-Apr-10 22:30N 38°08' E 013°22'0 0.0
2018-Apr-10 22:00N 38°08' E 013°22'0 0.0
2018-Apr-10 21:30N 38°08' E 013°22'0 0.0
2018-Apr-10 21:00N 38°08' E 013°22'0 0.0
2018-Apr-10 20:30N 38°08' E 013°22'0 0.0
2018-Apr-10 19:59N 38°08' E 013°22'0 0.0
2018-Apr-10 19:29N 38°08' E 013°22'0 0.0
2018-Apr-10 18:59N 38°08' E 013°22'0 0.0
2018-Apr-10 18:29N 38°08' E 013°22'0 0.0
2018-Apr-10 17:58N 38°08' E 013°22'0 0.0
2018-Apr-10 17:28N 38°08' E 013°22'0 0.0
2018-Apr-10 16:55N 38°08' E 013°22'0 0.0
2018-Apr-10 16:28N 38°08' E 013°22'0 0.0
2018-Apr-10 15:58N 38°08' E 013°22'0 0.0
2018-Apr-10 15:30N 38°08' E 013°22'0 0.0
2018-Apr-10 15:00N 38°08' E 013°22'0 0.0
2018-Apr-10 14:30N 38°08' E 013°22'0 0.0
2018-Apr-10 13:47N 38°08' E 013°22'0 0.0
2018-Apr-10 13:29N 38°08' E 013°22'0 0.0
2018-Apr-10 13:00N 38°08' E 013°22'0 0.0
2018-Apr-10 12:28N 38°08' E 013°22'0 0.0
2018-Apr-10 12:00N 38°08' E 013°22'0 0.0
2018-Apr-10 11:30N 38°08' E 013°22'0 0.0
2018-Apr-10 11:00N 38°08' E 013°22'0 0.0
2018-Apr-10 10:27N 38°08' E 013°22'0 0.0
2018-Apr-10 09:59N 38°08' E 013°22'0 0.0
2018-Apr-10 09:29N 38°08' E 013°22'0 0.0
2018-Apr-10 08:59N 38°08' E 013°22'0 0.0
2018-Apr-10 08:29N 38°08' E 013°22'0 0.0
2018-Apr-10 07:59N 38°08' E 013°22'0 0.0
2018-Apr-10 07:28N 38°08' E 013°22'0 0.0
2018-Apr-10 06:58N 38°08' E 013°22'0 0.0
2018-Apr-10 06:28N 38°08' E 013°22'0 0.0
2018-Apr-10 05:58N 38°08' E 013°22'0 0.0
2018-Apr-10 05:28N 38°08' E 013°22'0 0.0
2018-Apr-10 05:00N 38°08' E 013°22'0 0.0
2018-Apr-10 04:30N 38°08' E 013°22'0 0.0
2018-Apr-10 04:00N 38°08' E 013°22'0 0.0
2018-Apr-10 03:30N 38°08' E 013°22'0 0.0
2018-Apr-10 02:59N 38°08' E 013°22'0 0.0
2018-Apr-10 02:29N 38°08' E 013°22'0 0.0
2018-Apr-10 01:59N 38°08' E 013°22'0 0.0
2018-Apr-10 01:29N 38°08' E 013°22'0 0.0
2018-Apr-10 00:59N 38°08' E 013°22'0 0.0
2018-Apr-10 00:30N 38°08' E 013°22'0 0.0
2018-Apr-09 23:58N 38°08' E 013°22'0 0.0
2018-Apr-09 23:28N 38°08' E 013°22'0 0.0
2018-Apr-09 22:58N 38°08' E 013°22'0 0.0
2018-Apr-09 22:31N 38°08' E 013°22'0 0.0
2018-Apr-09 22:00N 38°08' E 013°22'0 0.0
2018-Apr-09 21:30N 38°08' E 013°22'0 0.0
2018-Apr-09 21:00N 38°08' E 013°22'0 0.0
2018-Apr-09 20:30N 38°08' E 013°22'0 0.0
2018-Apr-09 19:59N 38°08' E 013°22'0 0.0
2018-Apr-09 19:23N 38°08' E 013°22'0 0.0
2018-Apr-09 18:59N 38°08' E 013°22'0 0.0
2018-Apr-09 18:29N 38°08' E 013°22'0 0.0
2018-Apr-09 17:59N 38°08' E 013°22'0 0.0
2018-Apr-09 17:28N 38°08' E 013°22'0 0.0
2018-Apr-09 16:58N 38°08' E 013°22'0 0.0
2018-Apr-09 16:28N 38°08' E 013°22'0 0.0
2018-Apr-09 15:58N 38°08' E 013°22'0 0.0
2018-Apr-09 15:30N 38°08' E 013°22'0 0.0
2018-Apr-09 15:00N 38°08' E 013°22'0 0.0
2018-Apr-09 14:30N 38°08' E 013°22'0 0.0
2018-Apr-09 14:00N 38°08' E 013°22'0 0.0
2018-Apr-09 13:30N 38°08' E 013°22'0 0.0
2018-Apr-09 12:59N 38°08' E 013°22'0 0.0
2018-Apr-09 12:29N 38°08' E 013°22'0 0.0
2018-Apr-09 11:59N 38°08' E 013°22'0 0.0
2018-Apr-09 11:29N 38°08' E 013°22'0 0.0
2018-Apr-09 10:59N 38°08' E 013°22'0 0.0
2018-Apr-09 10:28N 38°08' E 013°22'0 0.0
2018-Apr-09 09:58N 38°08' E 013°22'0 0.0
2018-Apr-09 09:28N 38°08' E 013°22'0 0.0
2018-Apr-09 08:58N 38°08' E 013°22'0 0.0
2018-Apr-09 08:30N 38°08' E 013°22'0 0.0
2018-Apr-09 08:00N 38°08' E 013°22'0 0.0
2018-Apr-09 07:30N 38°08' E 013°22'0 0.0
2018-Apr-09 07:00N 38°08' E 013°22'0 0.0
2018-Apr-09 06:30N 38°08' E 013°22'0 0.0
2018-Apr-09 05:59N 38°08' E 013°22'0 0.0
2018-Apr-09 05:29N 38°08' E 013°22'0 0.0
2018-Apr-09 04:59N 38°08' E 013°22'0 0.0
2018-Apr-09 04:29N 38°08' E 013°22'0 0.0
2018-Apr-09 03:59N 38°08' E 013°22'0 0.0
2018-Apr-09 03:28N 38°08' E 013°22'0 0.0
2018-Apr-09 02:58N 38°08' E 013°22'0 0.0
2018-Apr-09 02:28N 38°08' E 013°22'0 0.0
2018-Apr-09 01:58N 38°08' E 013°22'0 0.0
2018-Apr-09 01:30N 38°08' E 013°22'0 0.0
2018-Apr-09 01:00N 38°08' E 013°22'0 0.0
2018-Apr-09 00:30N 38°08' E 013°22'0 0.0
2018-Apr-09 00:00N 38°08' E 013°22'0 0.0
2018-Apr-08 23:30N 38°08' E 013°22'0 0.0
2018-Apr-08 22:59N 38°08' E 013°22'0 0.0
2018-Apr-08 22:29N 38°08' E 013°22'0 0.0
2018-Apr-08 21:59N 38°08' E 013°22'0 0.0
2018-Apr-08 21:29N 38°08' E 013°22'0 0.0
2018-Apr-08 20:59N 38°08' E 013°22'0 0.0
2018-Apr-08 20:28N 38°08' E 013°22'0 0.0
2018-Apr-08 19:58N 38°08' E 013°22'0 0.0
2018-Apr-08 19:28N 38°08' E 013°22'0 0.0
2018-Apr-08 18:58N 38°08' E 013°22'0 0.0
2018-Apr-08 18:30N 38°08' E 013°22'0 0.0
2018-Apr-08 18:00N 38°08' E 013°22'0 0.0
2018-Apr-08 17:30N 38°08' E 013°22'0 0.0
2018-Apr-08 17:00N 38°08' E 013°22'0 0.0
2018-Apr-08 16:27N 38°08' E 013°22'0 0.0
2018-Apr-08 15:59N 38°08' E 013°22'0 0.0
2018-Apr-08 15:29N 38°08' E 013°22'0 0.0
2018-Apr-08 14:59N 38°08' E 013°22'0 0.0
2018-Apr-08 14:29N 38°08' E 013°22'0 0.0
2018-Apr-08 13:59N 38°08' E 013°22'0 0.0
2018-Apr-08 13:28N 38°08' E 013°22'0 0.0
2018-Apr-08 12:58N 38°08' E 013°22'0 0.0
2018-Apr-08 12:28N 38°08' E 013°22'0 0.0
2018-Apr-08 11:58N 38°08' E 013°22'0 0.0
2018-Apr-08 11:30N 38°08' E 013°22'0 0.0
2018-Apr-08 11:00N 38°08' E 013°22'0 0.0
2018-Apr-08 10:30N 38°08' E 013°22'0 0.0
2018-Apr-08 10:00N 38°08' E 013°22'0 0.0
2018-Apr-08 09:30N 38°08' E 013°22'0 0.0
2018-Apr-08 08:59N 38°08' E 013°22'0 0.0
2018-Apr-08 08:29N 38°08' E 013°22'0 0.0
2018-Apr-08 07:59N 38°08' E 013°22'0 0.0
2018-Apr-08 07:29N 38°08' E 013°22'0 0.0
2018-Apr-08 06:58N 38°08' E 013°22'0 0.0
2018-Apr-08 06:28N 38°08' E 013°22'0 0.0
2018-Apr-08 05:58N 38°08' E 013°22'0 0.0
2018-Apr-08 05:28N 38°08' E 013°22'0 0.0
2018-Apr-08 04:58N 38°08' E 013°22'0 0.0
2018-Apr-08 04:30N 38°08' E 013°22'0 0.0
2018-Apr-08 04:00N 38°08' E 013°22'0 0.0
2018-Apr-08 03:30N 38°08' E 013°22'0 0.0
2018-Apr-08 03:00N 38°08' E 013°22'0 0.0
2018-Apr-08 02:30N 38°08' E 013°22'0 0.0
2018-Apr-08 01:56N 38°08' E 013°22'0 0.0
2018-Apr-08 01:29N 38°08' E 013°22'0 0.0
2018-Apr-08 00:59N 38°08' E 013°22'0 0.0
2018-Apr-08 00:29N 38°08' E 013°22'0 0.0
2018-Apr-07 23:58N 38°08' E 013°22'0 0.0
2018-Apr-07 23:28N 38°08' E 013°22'0 0.0
2018-Apr-07 22:58N 38°08' E 013°22'0 0.0
2018-Apr-07 22:28N 38°08' E 013°22'0 0.0
2018-Apr-07 21:58N 38°08' E 013°22'0 0.0
2018-Apr-07 21:30N 38°08' E 013°22'0 0.0
2018-Apr-07 21:00N 38°08' E 013°22'0 0.0
2018-Apr-07 20:30N 38°08' E 013°22'0 0.0
2018-Apr-07 20:01N 38°08' E 013°22'0 0.0
2018-Apr-07 19:30N 38°08' E 013°22'  

Dump ship's entire track history